Time;durP1;ratioP1;P1;durP2;ratioP2;P2;SDS_P1;SDS_P2;PMS_P1;PMS_P2;Temp;Humidity;BMP_temperature;BMP_pressure;BME280_temperature;BME280_humidity;BME280_pressure;Samples;Min_cycle;Max_cycle;Signal;HPM_P1;HPM_P2
2023/05/16 00:00:08;;;;;;;26.42;17.30;;;;;;;14.97;59.98;97013.31;4886738;28;20227;-81
2023/05/16 00:02:38;;;;;;;24.85;15.93;;;;;;;15.01;59.85;97014.34;4900232;28;20468;-81
2023/05/16 00:05:05;;;;;;;22.92;15.45;;;;;;;15.02;59.58;97009.88;4935961;28;20199;-81
2023/05/16 00:07:31;;;;;;;21.83;15.20;;;;;;;15.01;60.22;97008.28;4896769;28;20239;-81
2023/05/16 00:09:57;;;;;;;23.40;15.95;;;;;;;14.96;60.01;97003.88;4933286;28;20613;-81
2023/05/16 00:12:22;;;;;;;22.95;15.65;;;;;;;14.93;60.53;97005.22;4917336;28;20371;-81
2023/05/16 00:14:49;;;;;;;22.42;15.70;;;;;;;14.88;60.87;97007.09;4915512;28;20259;-81
2023/05/16 00:17:16;;;;;;;21.75;15.32;;;;;;;14.91;60.53;97015.19;4902943;28;20164;-81
2023/05/16 00:19:43;;;;;;;23.45;15.35;;;;;;;14.88;60.55;97007.09;4895168;28;20356;-82
2023/05/16 00:22:10;;;;;;;20.45;13.70;;;;;;;14.74;60.55;97001.72;4913442;28;20247;-81
2023/05/16 00:24:35;;;;;;;22.67;14.63;;;;;;;14.70;61.28;97001.50;4936621;28;20202;-81
2023/05/16 00:27:02;;;;;;;23.40;16.23;;;;;;;14.53;62.15;96998.44;4889068;28;20197;-81
2023/05/16 00:29:29;;;;;;;25.00;16.02;;;;;;;14.72;60.64;97002.00;4914133;28;20188;-81
2023/05/16 00:31:55;;;;;;;22.88;15.45;;;;;;;14.73;60.82;97008.78;4904640;28;20154;-80
2023/05/16 00:34:21;;;;;;;24.75;15.23;;;;;;;14.76;61.58;97004.84;4928682;28;20175;-81
2023/05/16 00:36:47;;;;;;;23.02;15.40;;;;;;;14.85;60.60;97005.81;4921872;28;20532;-81
2023/05/16 00:39:12;;;;;;;23.27;14.48;;;;;;;14.86;60.83;97006.59;4937728;28;20234;-81
2023/05/16 00:41:38;;;;;;;22.17;14.68;;;;;;;14.89;60.32;97017.31;4930437;28;20244;-80
2023/05/16 00:44:03;;;;;;;22.48;14.13;;;;;;;14.78;60.86;97013.97;4907226;28;20181;-82
2023/05/16 00:46:29;;;;;;;24.83;15.23;;;;;;;14.70;61.30;97008.56;4940396;28;20256;-81
2023/05/16 00:48:54;;;;;;;22.73;14.10;;;;;;;14.81;60.77;97011.88;4926522;28;20185;-81
2023/05/16 00:51:19;;;;;;;21.75;13.27;;;;;;;14.81;60.88;97010.03;4891168;28;20175;-81
2023/05/16 00:53:45;;;;;;;22.02;13.70;;;;;;;14.74;61.46;97010.34;4945862;28;20190;-81
2023/05/16 00:56:10;;;;;;;21.00;14.13;;;;;;;14.75;61.15;97008.50;4909509;28;20215;-80
2023/05/16 00:58:36;;;;;;;19.85;13.30;;;;;;;14.85;61.17;97010.28;4918253;28;20206;-80
2023/05/16 01:01:05;;;;;;;22.75;14.15;;;;;;;14.81;61.07;97009.28;4936866;28;20199;-82
2023/05/16 01:03:30;;;;;;;20.77;13.43;;;;;;;14.75;61.03;97006.69;4913059;28;20271;-81
2023/05/16 01:05:56;;;;;;;20.58;13.95;;;;;;;14.87;60.69;97008.91;4894004;28;20271;-81
2023/05/16 01:08:23;;;;;;;21.02;14.40;;;;;;;14.91;61.04;97009.19;4953618;28;20304;-81
2023/05/16 01:10:54;;;;;;;18.95;12.95;;;;;;;14.77;62.50;97012.44;4950525;28;20214;-80
2023/05/16 01:13:37;;;;;;;19.48;13.45;;;;;;;14.80;62.04;97003.22;4920644;28;20042;-82
2023/05/16 01:16:10;;;;;;;20.48;13.88;;;;;;;14.54;62.86;97010.50;4914324;28;20195;-80
2023/05/16 01:18:49;;;;;;;20.10;13.88;;;;;;;14.94;62.13;97000.75;4888474;28;20211;-81
2023/05/16 01:21:20;;;;;;;21.80;13.57;;;;;;;14.97;61.52;97005.44;4916075;28;20441;-80
2023/05/16 01:24:10;;;;;;;20.38;12.85;;;;;;;14.94;62.47;97008.59;4908591;28;20366;-80
2023/05/16 01:26:35;;;;;;;18.83;12.95;;;;;;;14.91;62.26;97003.94;4891675;28;20281;-81
2023/05/16 01:29:02;;;;;;;19.45;13.10;;;;;;;14.86;61.79;97014.47;4906916;28;20182;-82
2023/05/16 01:31:28;;;;;;;20.42;13.55;;;;;;;14.91;62.28;97009.94;4933463;28;20241;-81
2023/05/16 01:33:53;;;;;;;20.75;13.88;;;;;;;14.94;61.82;96998.13;4909608;28;20265;-80
2023/05/16 01:36:22;;;;;;;19.77;13.15;;;;;;;14.96;62.16;97009.13;4923286;28;20108;-80
2023/05/16 01:39:21;;;;;;;19.55;11.85;;;;;;;15.04;62.29;97016.38;4949976;28;20309;-80
2023/05/16 01:41:52;;;;;;;18.17;12.93;;;;;;;15.09;61.97;97002.44;4907403;28;20292;-80
2023/05/16 01:44:24;;;;;;;22.80;12.45;;;;;;;15.14;61.15;97010.25;4941415;28;20190;-81
2023/05/16 01:46:54;;;;;;;18.08;12.60;;;;;;;15.04;62.00;97008.50;4909590;28;20307;-79
2023/05/16 01:49:25;;;;;;;18.98;13.05;;;;;;;15.14;61.86;97013.66;4910714;28;20190;-80
2023/05/16 01:51:55;;;;;;;18.00;12.50;;;;;;;15.16;60.91;97011.56;4905202;28;20034;-80
2023/05/16 01:54:24;;;;;;;19.77;12.52;;;;;;;14.97;62.03;96995.72;4905116;28;20417;-80
2023/05/16 01:56:51;;;;;;;15.93;11.35;;;;;;;15.01;61.61;97003.03;4905339;28;20275;-81
2023/05/16 01:59:19;;;;;;;17.98;12.20;;;;;;;15.01;61.87;97009.09;4914347;28;20133;-81
2023/05/16 02:01:45;;;;;;;19.73;11.45;;;;;;;14.98;62.20;97014.88;4924703;28;20314;-81
2023/05/16 02:04:12;;;;;;;17.67;11.82;;;;;;;14.98;61.90;97020.13;4923113;28;20528;-81
2023/05/16 02:06:37;;;;;;;21.80;11.85;;;;;;;14.77;62.85;97020.28;4913167;28;20321;-80
2023/05/16 02:09:03;;;;;;;18.15;12.38;;;;;;;14.84;62.25;97009.50;4919974;28;20190;-80
2023/05/16 02:11:28;;;;;;;18.80;11.95;;;;;;;14.94;62.03;97014.66;4936178;28;20254;-81
2023/05/16 02:13:53;;;;;;;19.58;12.07;;;;;;;15.00;62.26;97015.38;4921328;28;20648;-82
2023/05/16 02:16:19;;;;;;;19.95;12.13;;;;;;;14.97;61.63;97008.06;4907783;28;20811;-81
2023/05/16 02:18:44;;;;;;;20.92;11.55;;;;;;;15.00;61.95;97015.38;4891254;28;20253;-82
2023/05/16 02:21:10;;;;;;;17.30;11.70;;;;;;;14.83;61.98;97005.31;4906600;28;20219;-82
2023/05/16 02:23:35;;;;;;;17.80;11.82;;;;;;;14.88;62.16;97012.34;4922304;28;20253;-82
2023/05/16 02:26:01;;;;;;;17.65;11.20;;;;;;;14.90;61.58;97007.59;4925371;28;20102;-80
2023/05/16 02:28:26;;;;;;;15.63;11.32;;;;;;;14.80;61.97;97011.09;4936559;28;20181;-81
2023/05/16 02:30:58;;;;;;;18.08;11.15;;;;;;;14.90;62.13;97016.25;4924261;28;20717;-80
2023/05/16 02:33:28;;;;;;;16.05;11.30;;;;;;;14.77;62.78;97015.06;4915024;28;20218;-83
2023/05/16 02:35:53;;;;;;;17.08;10.80;;;;;;;14.87;61.77;97013.41;4916893;28;20201;-80
2023/05/16 02:38:19;;;;;;;16.85;12.25;;;;;;;14.69;62.37;97012.25;4903955;28;20308;-80
2023/05/16 02:40:48;;;;;;;18.13;10.65;;;;;;;14.85;62.40;97015.50;4937019;28;20779;-82
2023/05/16 02:43:14;;;;;;;16.63;11.43;;;;;;;14.81;62.65;97014.50;4922163;28;20223;-81
2023/05/16 02:45:40;;;;;;;17.08;10.50;;;;;;;14.81;62.96;97020.53;4893906;28;20295;-81
2023/05/16 02:48:05;;;;;;;16.48;10.30;;;;;;;14.78;62.39;97016.59;4921022;28;20280;-80
2023/05/16 02:50:31;;;;;;;16.85;11.13;;;;;;;14.72;62.31;97012.47;4910407;28;20453;-81
2023/05/16 02:52:58;;;;;;;18.98;11.25;;;;;;;14.68;63.23;97016.69;4917266;28;20271;-80
2023/05/16 02:55:25;;;;;;;17.58;10.35;;;;;;;14.84;61.82;97019.97;4909059;28;20288;-82
2023/05/16 02:57:50;;;;;;;14.82;10.40;;;;;;;14.77;61.89;97017.69;4922037;28;20216;-81
2023/05/16 03:00:17;;;;;;;16.15;10.38;;;;;;;14.66;62.35;97012.78;4889359;28;20214;-81
2023/05/16 03:02:43;;;;;;;15.20;9.98;;;;;;;14.75;61.53;97014.56;4906260;28;20252;-81
2023/05/16 03:05:09;;;;;;;14.15;9.80;;;;;;;14.52;62.39;97018.63;4888937;28;20171;-79
2023/05/16 03:07:35;;;;;;;14.88;9.85;;;;;;;14.55;61.80;97023.31;4947754;28;20206;-80
2023/05/16 03:10:00;;;;;;;16.00;10.48;;;;;;;14.59;61.98;97029.59;4903852;28;20631;-81
2023/05/16 03:12:25;;;;;;;14.90;9.57;;;;;;;14.67;62.34;97030.06;4892811;28;20239;-81
2023/05/16 03:14:51;;;;;;;18.10;9.77;;;;;;;14.49;62.50;97019.16;4916441;28;20711;-81
2023/05/16 03:17:16;;;;;;;16.60;10.10;;;;;;;14.57;61.63;97039.53;4928753;28;20515;-82
2023/05/16 03:19:42;;;;;;;16.90;9.77;;;;;;;14.56;61.97;97037.19;4907744;28;20206;-80
2023/05/16 03:22:07;;;;;;;15.93;10.23;;;;;;;14.66;61.34;97031.91;4917637;28;20190;-80
2023/05/16 03:24:32;;;;;;;16.65;9.93;;;;;;;14.62;61.64;97030.91;4925610;28;20199;-81
2023/05/16 03:26:58;;;;;;;13.18;9.27;;;;;;;14.58;60.86;97032.47;4915252;28;20292;-81
2023/05/16 03:29:25;;;;;;;17.23;9.88;;;;;;;14.61;61.56;97037.97;4937998;28;20202;-82
2023/05/16 03:31:51;;;;;;;16.17;9.93;;;;;;;14.55;61.14;97038.25;4937348;28;20247;-81
2023/05/16 03:34:16;;;;;;;15.35;9.65;;;;;;;14.61;61.29;97042.44;4925495;28;20648;-81
2023/05/16 03:36:42;;;;;;;15.35;8.30;;;;;;;14.57;61.27;97031.69;4910190;28;20241;-81
2023/05/16 03:39:07;;;;;;;16.05;9.23;;;;;;;14.65;61.00;97038.22;4922840;28;20165;-80
2023/05/16 03:41:36;;;;;;;13.90;9.52;;;;;;;14.70;61.29;97040.81;4900376;28;20170;-82
2023/05/16 03:44:01;;;;;;;16.60;9.68;;;;;;;14.51;61.45;97037.22;4942615;28;20671;-81
2023/05/16 03:46:27;;;;;;;15.82;9.30;;;;;;;14.49;61.53;97039.34;4921017;28;20108;-82
2023/05/16 03:48:52;;;;;;;13.02;8.95;;;;;;;14.51;61.22;97042.47;4934881;28;20232;-80
2023/05/16 03:51:17;;;;;;;15.18;8.88;;;;;;;14.49;61.33;97047.19;4907348;28;20182;-79
2023/05/16 03:53:43;;;;;;;13.55;9.20;;;;;;;14.42;62.41;97043.03;4937885;28;20950;-81
2023/05/16 03:56:08;;;;;;;16.02;8.48;;;;;;;14.46;62.44;97055.59;4929971;28;20253;-83
2023/05/16 03:58:34;;;;;;;13.70;9.30;;;;;;;14.37;62.49;97042.28;4926587;28;20345;-80
2023/05/16 04:00:59;;;;;;;15.00;8.82;;;;;;;14.48;62.24;97050.88;4941813;28;20192;-81
2023/05/16 04:03:28;;;;;;;15.40;9.27;;;;;;;14.53;61.72;97045.59;4930623;28;20559;-81
2023/05/16 04:05:54;;;;;;;11.68;8.18;;;;;;;14.53;61.96;97051.63;4923587;28;20220;-82
2023/05/16 04:08:20;;;;;;;14.43;8.38;;;;;;;14.55;61.60;97048.75;4901155;28;20155;-80
2023/05/16 04:10:46;;;;;;;15.45;7.95;;;;;;;14.40;61.72;97049.63;4900962;28;20308;-80
2023/05/16 04:13:11;;;;;;;12.68;8.02;;;;;;;14.46;61.32;97060.84;4888461;28;20098;-82
2023/05/16 04:15:36;;;;;;;14.95;8.45;;;;;;;14.35;62.61;97060.13;4927948;28;20173;-80
2023/05/16 04:18:02;;;;;;;13.70;7.93;;;;;;;14.37;62.17;97064.03;4927169;28;20189;-81
2023/05/16 04:20:27;;;;;;;16.00;8.15;;;;;;;14.25;62.64;97084.53;4926509;28;20290;-83
2023/05/16 04:22:53;;;;;;;12.98;8.10;;;;;;;14.21;62.47;97067.81;4916644;28;20298;-80
2023/05/16 04:25:18;;;;;;;15.00;8.43;;;;;;;14.34;62.17;97076.88;4936182;28;20269;-81
2023/05/16 04:27:44;;;;;;;12.73;7.90;;;;;;;14.31;62.29;97074.78;4921619;28;20212;-80
2023/05/16 04:30:10;;;;;;;13.52;8.75;;;;;;;14.33;62.41;97077.94;4884892;28;20215;-80
2023/05/16 04:32:36;;;;;;;12.27;7.45;;;;;;;14.21;62.53;97065.19;4929677;28;20234;-79
2023/05/16 04:35:02;;;;;;;14.35;7.93;;;;;;;14.32;62.29;97077.16;4907706;28;20285;-81
2023/05/16 04:37:27;;;;;;;13.50;7.88;;;;;;;14.22;62.67;97079.81;4880782;28;20183;-81
2023/05/16 04:39:53;;;;;;;13.18;7.60;;;;;;;14.15;62.37;97077.50;4916337;28;20112;-80
2023/05/16 04:42:19;;;;;;;11.10;6.53;;;;;;;14.07;63.34;97087.75;4917659;28;20279;-81
2023/05/16 04:44:46;;;;;;;13.00;7.28;;;;;;;13.91;63.60;97082.56;4915038;28;20654;-81
2023/05/16 04:47:12;;;;;;;13.02;6.68;;;;;;;14.15;62.79;97087.19;4905246;28;20218;-80
2023/05/16 04:49:38;;;;;;;8.45;5.90;;;;;;;14.12;62.60;97088.53;4932055;28;20203;-82
2023/05/16 04:52:04;;;;;;;8.00;5.30;;;;;;;14.22;62.11;97085.88;4910786;28;20269;-81
2023/05/16 04:54:30;;;;;;;9.23;5.10;;;;;;;14.05;62.83;97091.44;4896531;28;20183;-81
2023/05/16 04:56:56;;;;;;;9.45;5.57;;;;;;;14.12;62.36;97087.72;4918523;28;20696;-80
2023/05/16 04:59:21;;;;;;;6.65;4.60;;;;;;;14.28;61.75;97091.84;4911194;28;20213;-81
2023/05/16 05:01:47;;;;;;;6.75;3.78;;;;;;;14.41;61.28;97091.25;4923838;28;20198;-82
2023/05/16 05:04:13;;;;;;;8.60;4.63;;;;;;;14.18;61.99;97094.53;4916486;28;20171;-80
2023/05/16 05:06:38;;;;;;;7.20;4.00;;;;;;;14.26;61.63;97096.56;4919491;28;20227;-80
2023/05/16 05:09:04;;;;;;;5.32;3.35;;;;;;;14.15;62.37;97098.44;4911804;28;20257;-80
2023/05/16 05:11:30;;;;;;;7.40;4.68;;;;;;;14.26;61.55;97096.56;4919628;28;20269;-81
2023/05/16 05:13:56;;;;;;;6.40;3.28;;;;;;;14.28;61.17;97097.09;4885832;28;20164;-84
2023/05/16 05:16:21;;;;;;;4.15;3.35;;;;;;;14.19;61.28;97104.72;4896720;28;20680;-81
2023/05/16 05:18:47;;;;;;;4.32;2.85;;;;;;;14.18;61.49;97097.91;4906226;28;20202;-80
2023/05/16 05:21:12;;;;;;;4.28;2.45;;;;;;;14.28;61.15;97110.19;4933052;28;20191;-81
2023/05/16 05:23:38;;;;;;;4.10;2.80;;;;;;;14.24;60.97;97106.53;4901216;28;20193;-81
2023/05/16 05:26:04;;;;;;;6.15;2.90;;;;;;;14.11;60.94;97096.66;4916814;28;20333;-79
2023/05/16 05:28:29;;;;;;;3.83;2.47;;;;;;;14.21;61.21;97107.06;4934031;28;20214;-79
2023/05/16 05:30:54;;;;;;;2.90;2.03;;;;;;;14.22;61.11;97109.44;4889891;28;20204;-80
2023/05/16 05:33:25;;;;;;;3.28;2.70;;;;;;;14.37;61.43;97113.78;4890864;28;20227;-81
2023/05/16 05:35:52;;;;;;;2.85;2.50;;;;;;;14.32;60.56;97097.31;4938949;28;20104;-80
2023/05/16 05:38:18;;;;;;;3.63;2.38;;;;;;;14.25;60.71;97108.09;4920255;28;20649;-82
2023/05/16 05:40:44;;;;;;;2.92;1.95;;;;;;;14.10;60.99;97111.56;4901568;28;20163;-82
2023/05/16 05:43:09;;;;;;;1.92;1.70;;;;;;;14.35;59.70;97112.50;4930387;28;20344;-80
2023/05/16 05:45:35;;;;;;;15.07;9.27;;;;;;;14.43;59.20;97119.81;4903387;28;20136;-80
2023/05/16 05:48:00;;;;;;;11.93;7.05;;;;;;;14.42;60.22;97119.00;4887597;28;20193;-81
2023/05/16 05:50:26;;;;;;;5.82;3.83;;;;;;;14.37;58.96;97116.41;4905466;28;20167;-82
2023/05/16 05:52:51;;;;;;;5.95;4.00;;;;;;;14.30;59.04;97110.69;4915407;28;20225;-80
2023/05/16 05:55:17;;;;;;;5.38;3.88;;;;;;;14.39;58.83;97124.81;4898968;28;20165;-81
2023/05/16 05:57:42;;;;;;;2.13;1.92;;;;;;;14.21;58.91;97122.78;4919468;28;20233;-80
2023/05/16 06:00:09;;;;;;;1.98;1.67;;;;;;;14.25;59.03;97129.03;4912895;28;20240;-81
2023/05/16 06:02:34;;;;;;;3.58;3.25;;;;;;;14.26;59.38;97130.63;4881453;28;20215;-81
2023/05/16 06:05:00;;;;;;;3.70;2.72;;;;;;;14.37;59.02;97132.13;4882692;28;20196;-80
2023/05/16 06:07:25;;;;;;;2.10;1.90;;;;;;;14.57;58.57;97138.34;4933341;28;20311;-82
2023/05/16 06:09:51;;;;;;;1.70;1.60;;;;;;;14.47;58.71;97130.53;4899080;28;20302;-82
2023/05/16 06:12:16;;;;;;;2.30;2.08;;;;;;;14.37;58.75;97139.97;4894553;28;20267;-80
2023/05/16 06:14:42;;;;;;;1.58;1.48;;;;;;;14.30;58.32;97147.34;4902952;28;20288;-79
2023/05/16 06:17:07;;;;;;;1.67;1.48;;;;;;;14.24;59.05;97133.50;4919841;28;20247;-80
2023/05/16 06:19:33;;;;;;;3.72;3.38;;;;;;;14.24;59.58;97143.22;4882130;28;20631;-80
2023/05/16 06:21:58;;;;;;;2.10;1.90;;;;;;;14.16;59.55;97147.16;4925547;28;20371;-81
2023/05/16 06:24:23;;;;;;;2.78;2.13;;;;;;;14.22;58.15;97145.28;4914708;28;20358;-81
2023/05/16 06:26:49;;;;;;;2.20;1.85;;;;;;;14.38;59.48;97153.88;4916596;28;20210;-81
2023/05/16 06:29:16;;;;;;;3.05;2.72;;;;;;;14.27;59.17;97147.13;4927963;28;20180;-80
2023/05/16 06:31:41;;;;;;;2.60;2.40;;;;;;;14.39;58.59;97151.00;4888492;28;20652;-80
2023/05/16 06:34:07;;;;;;;3.15;2.85;;;;;;;14.32;59.70;97149.72;4914384;28;20224;-81
2023/05/16 06:36:32;;;;;;;2.60;2.40;;;;;;;14.30;58.85;97146.59;4875914;28;20512;-80
2023/05/16 06:38:57;;;;;;;2.55;2.35;;;;;;;14.33;58.75;97154.69;4885762;28;20192;-83
2023/05/16 06:41:23;;;;;;;2.60;2.40;;;;;;;14.02;59.90;97154.03;4912707;28;20205;-79
2023/05/16 06:43:48;;;;;;;2.80;2.28;;;;;;;13.88;60.38;97164.28;4912656;28;20245;-81
2023/05/16 06:46:14;;;;;;;1.60;1.48;;;;;;;13.95;59.70;97164.78;4888907;28;20201;-81
2023/05/16 06:48:39;;;;;;;2.03;1.83;;;;;;;14.18;59.39;97158.13;4928989;28;20178;-82
2023/05/16 06:51:04;;;;;;;2.33;1.70;;;;;;;14.11;59.54;97155.03;4912173;28;20664;-82
2023/05/16 06:53:30;;;;;;;1.60;1.50;;;;;;;14.22;59.52;97155.75;4909134;28;20225;-79
2023/05/16 06:55:56;;;;;;;1.63;1.52;;;;;;;14.03;59.40;97166.84;4917213;28;20290;-80
2023/05/16 06:58:21;;;;;;;1.50;1.33;;;;;;;13.95;59.34;97172.63;4905189;28;20532;-83
2023/05/16 07:00:48;;;;;;;1.27;1.10;;;;;;;13.83;60.32;97170.28;4950530;28;20188;-79
2023/05/16 07:03:14;;;;;;;2.65;1.40;;;;;;;13.87;59.82;97162.69;4886679;28;20197;-80
2023/05/16 07:05:40;;;;;;;1.23;1.13;;;;;;;13.94;60.33;97171.03;4904160;28;20383;-79
2023/05/16 07:08:11;;;;;;;1.08;0.93;;;;;;;14.02;59.88;97178.34;4904071;28;20167;-82
2023/05/16 07:10:37;;;;;;;1.17;1.08;;;;;;;13.92;59.50;97178.38;4895619;28;20107;-82
2023/05/16 07:13:03;;;;;;;1.20;1.10;;;;;;;14.05;58.65;97185.69;4918236;28;20384;-79
2023/05/16 07:15:29;;;;;;;0.95;0.82;;;;;;;14.00;59.17;97187.50;4905588;28;20163;-83
2023/05/16 07:17:55;;;;;;;1.15;0.88;;;;;;;13.76;59.33;97193.34;4899232;28;20264;-83
2023/05/16 07:20:21;;;;;;;1.00;0.77;;;;;;;13.87;58.98;97196.72;4940418;28;20664;-80
2023/05/16 07:22:46;;;;;;;2.17;0.90;;;;;;;13.81;59.28;97203.00;4905974;28;20255;-79
2023/05/16 07:25:13;;;;;;;1.25;1.10;;;;;;;13.55;59.16;97197.00;4886950;28;20190;-80
2023/05/16 07:27:43;;;;;;;1.65;0.80;;;;;;;13.62;59.41;97214.03;4886233;28;20176;-80
2023/05/16 07:30:10;;;;;;;0.80;0.77;;;;;;;13.56;59.11;97204.59;4911915;28;20268;-83
2023/05/16 07:32:36;;;;;;;1.08;0.93;;;;;;;13.55;59.71;97208.25;4904869;28;20266;-82
2023/05/16 07:35:01;;;;;;;1.40;0.88;;;;;;;13.59;59.37;97221.59;4902121;28;20606;-81
2023/05/16 07:37:27;;;;;;;0.95;0.85;;;;;;;13.26;60.26;97206.16;4934586;28;20210;-81
2023/05/16 07:39:52;;;;;;;2.15;1.35;;;;;;;13.36;60.17;97220.28;4888736;28;20245;-82
2023/05/16 07:42:18;;;;;;;0.98;0.90;;;;;;;13.27;60.25;97225.22;4910797;28;20257;-80
2023/05/16 07:44:44;;;;;;;1.10;1.00;;;;;;;13.12;61.34;97233.81;4908322;28;20246;-81
2023/05/16 07:47:09;;;;;;;3.17;1.02;;;;;;;13.11;61.73;97229.66;4905583;28;20289;-80
2023/05/16 07:49:34;;;;;;;1.58;0.90;;;;;;;13.20;60.46;97225.47;4937514;28;20528;-82
2023/05/16 07:52:00;;;;;;;0.80;0.80;;;;;;;13.42;60.19;97232.34;4931663;28;20278;-81
2023/05/16 07:54:25;;;;;;;1.10;0.80;;;;;;;13.45;59.45;97223.94;4931839;28;20568;-81
2023/05/16 07:56:50;;;;;;;1.08;0.98;;;;;;;13.16;60.33;97236.69;4882650;28;20292;-81
2023/05/16 07:59:16;;;;;;;1.33;1.13;;;;;;;13.32;60.23;97232.31;4905235;28;20215;-80
2023/05/16 08:01:41;;;;;;;1.00;0.70;;;;;;;13.57;60.23;97237.56;4905590;28;20243;-80
2023/05/16 08:04:07;;;;;;;0.95;0.90;;;;;;;13.33;60.90;97234.66;4905567;28;20269;-79
2023/05/16 08:06:33;;;;;;;1.23;0.90;;;;;;;13.29;59.94;97234.34;4918288;28;20289;-83
2023/05/16 08:08:58;;;;;;;1.00;0.90;;;;;;;13.24;60.20;97234.34;4901015;28;20293;-82
2023/05/16 08:11:24;;;;;;;1.10;1.00;;;;;;;13.43;59.89;97239.13;4924376;28;20206;-80
2023/05/16 08:13:52;;;;;;;2.10;0.90;;;;;;;13.49;59.88;97236.25;4926077;28;20172;-81
2023/05/16 08:16:18;;;;;;;1.25;0.93;;;;;;;13.55;59.46;97244.09;4902237;28;20163;-83
2023/05/16 08:18:43;;;;;;;1.00;0.90;;;;;;;13.37;59.36;97242.78;4918677;28;20215;-81
2023/05/16 08:21:09;;;;;;;1.45;0.75;;;;;;;13.37;59.64;97248.03;4922381;28;20200;-82
2023/05/16 08:23:35;;;;;;;1.17;0.77;;;;;;;13.41;58.81;97249.06;4925712;28;20288;-80
2023/05/16 08:26:01;;;;;;;1.00;0.80;;;;;;;13.53;59.99;97254.81;4886347;28;20196;-82
2023/05/16 08:28:27;;;;;;;0.90;0.80;;;;;;;13.12;59.97;97254.72;4913278;28;20192;-80
2023/05/16 08:30:53;;;;;;;1.23;1.00;;;;;;;13.05;60.47;97254.97;4946798;28;20494;-80
2023/05/16 08:33:18;;;;;;;1.38;0.85;;;;;;;13.05;60.06;97243.75;4881735;28;20215;-82
2023/05/16 08:35:44;;;;;;;0.80;0.80;;;;;;;12.76;61.52;97262.47;4899397;28;20194;-82
2023/05/16 08:38:09;;;;;;;1.08;0.90;;;;;;;12.82;60.81;97253.63;4924551;28;20169;-80
2023/05/16 08:40:35;;;;;;;1.23;0.90;;;;;;;12.66;61.18;97263.22;4931197;28;20785;-82
2023/05/16 08:43:01;;;;;;;0.75;0.75;;;;;;;12.80;60.95;97253.09;4920451;28;20382;-81
2023/05/16 08:45:27;;;;;;;1.63;0.70;;;;;;;12.97;60.74;97258.13;4918603;28;20170;-80
2023/05/16 08:47:55;;;;;;;1.35;0.70;;;;;;;13.13;59.30;97263.38;4920157;28;20191;-81
2023/05/16 08:50:20;;;;;;;0.57;0.50;;;;;;;12.96;60.24;97263.59;4888076;28;20221;-82
2023/05/16 08:52:46;;;;;;;1.48;0.88;;;;;;;13.09;60.52;97263.09;4930357;28;20193;-81
2023/05/16 08:55:12;;;;;;;0.80;0.60;;;;;;;13.18;59.56;97261.56;4871389;28;20269;-80
2023/05/16 08:57:39;;;;;;;1.40;0.80;;;;;;;13.24;60.06;97257.88;4919026;28;20296;-80
2023/05/16 09:00:10;;;;;;;0.93;0.70;;;;;;;13.36;58.96;97270.75;4900748;28;20228;-78
2023/05/16 09:02:38;;;;;;;1.05;0.68;;;;;;;13.10;59.54;97270.66;4887853;28;20249;-80
2023/05/16 09:05:04;;;;;;;0.80;0.70;;;;;;;12.76;59.38;97259.06;4895921;28;20262;-80
2023/05/16 09:07:30;;;;;;;0.98;0.50;;;;;;;13.22;58.33;97265.22;4888551;28;20225;-80
2023/05/16 09:09:57;;;;;;;0.60;0.60;;;;;;;13.37;57.77;97266.31;4911395;28;20733;-79
2023/05/16 09:12:23;;;;;;;0.52;0.47;;;;;;;13.42;59.12;97272.34;4898628;28;20227;-81
2023/05/16 09:14:48;;;;;;;0.88;0.60;;;;;;;13.65;58.00;97271.03;4893144;28;20288;-81
2023/05/16 09:17:14;;;;;;;0.95;0.60;;;;;;;13.54;57.31;97281.75;4898765;28;20228;-81
2023/05/16 09:19:41;;;;;;;1.02;0.60;;;;;;;13.35;58.53;97278.84;4918152;28;20240;-83
2023/05/16 09:22:13;;;;;;;1.10;0.70;;;;;;;13.61;57.05;97277.84;4919502;28;20673;-83
2023/05/16 09:24:40;;;;;;;0.80;0.68;;;;;;;13.72;56.65;97285.69;4916391;28;20190;-80
2023/05/16 09:27:25;;;;;;;1.42;0.50;;;;;;;13.21;57.25;97278.53;4898827;28;20369;-82
2023/05/16 09:29:50;;;;;;;0.50;0.50;;;;;;;13.00;57.79;97282.94;4896137;28;20191;-83
2023/05/16 09:32:17;;;;;;;2.10;0.65;;;;;;;13.36;57.32;97283.06;4914367;28;20297;-80
2023/05/16 09:34:47;;;;;;;1.77;0.80;;;;;;;13.23;57.29;97287.72;4932107;28;20225;-80
2023/05/16 09:37:13;;;;;;;0.90;0.75;;;;;;;13.21;57.80;97289.00;4920039;28;20792;-82
2023/05/16 09:39:50;;;;;;;0.70;0.70;;;;;;;13.15;57.93;97287.44;4912801;28;20227;-84
2023/05/16 09:42:18;;;;;;;1.73;0.63;;;;;;;13.19;58.32;97285.84;4899038;28;20326;-81
2023/05/16 09:44:51;;;;;;;0.63;0.60;;;;;;;13.23;57.51;97290.31;4878220;28;20195;-80
2023/05/16 09:47:18;;;;;;;1.38;0.80;;;;;;;13.21;57.30;97295.03;4908059;28;20198;-84
2023/05/16 09:49:45;;;;;;;2.30;0.93;;;;;;;12.74;57.25;97290.69;4922978;28;20215;-83
2023/05/16 09:52:12;;;;;;;1.02;0.80;;;;;;;12.90;56.21;97301.97;4917596;28;20699;-80
2023/05/16 09:54:37;;;;;;;1.45;0.95;;;;;;;12.63;56.69;97304.72;4914684;28;20406;-80
2023/05/16 09:57:03;;;;;;;1.55;1.38;;;;;;;12.64;57.78;97303.69;4919500;28;20202;-82
2023/05/16 09:59:36;;;;;;;1.85;1.10;;;;;;;12.54;58.46;97299.19;4898440;28;20235;-82
2023/05/16 10:02:02;;;;;;;1.92;1.10;;;;;;;12.63;57.62;97295.09;4901029;28;20202;-84
2023/05/16 10:04:27;;;;;;;2.47;1.40;;;;;;;12.41;58.92;97305.66;4917238;28;20171;-81
2023/05/16 10:06:56;;;;;;;2.10;1.10;;;;;;;12.70;58.28;97300.06;4916231;28;20300;-83
2023/05/16 10:09:23;;;;;;;1.67;1.40;;;;;;;12.47;57.69;97302.03;4896849;28;20290;-80
2023/05/16 10:11:49;;;;;;;3.75;1.33;;;;;;;12.54;58.70;97314.88;4902238;28;20265;-82
2023/05/16 10:14:18;;;;;;;3.58;1.45;;;;;;;12.63;59.02;97309.94;4897698;28;20318;-79
2023/05/16 10:16:46;;;;;;;2.42;1.50;;;;;;;12.82;58.88;97308.50;4891881;28;20085;-80
2023/05/16 10:19:11;;;;;;;3.58;1.90;;;;;;;12.95;59.65;97317.66;4902035;28;20715;-81
2023/05/16 10:21:38;;;;;;;2.67;1.80;;;;;;;12.87;59.61;97316.34;4932377;28;20171;-81
2023/05/16 10:24:06;;;;;;;2.55;1.73;;;;;;;12.98;59.09;97319.78;4888533;28;20309;-83
2023/05/16 10:26:32;;;;;;;1.80;1.70;;;;;;;13.01;59.41;97314.03;4914991;28;20304;-81
2023/05/16 10:28:57;;;;;;;3.60;1.73;;;;;;;12.95;60.18;97324.72;4957845;28;20354;-83
2023/05/16 10:31:23;;;;;;;3.78;2.20;;;;;;;12.70;60.00;97326.19;4937789;28;20088;-80
2023/05/16 10:33:49;;;;;;;2.42;2.10;;;;;;;12.77;61.01;97329.38;4925118;28;20192;-82
2023/05/16 10:36:15;;;;;;;3.35;1.92;;;;;;;12.90;61.08;97326.28;4923311;28;20280;-80
2023/05/16 10:38:41;;;;;;;3.38;2.10;;;;;;;13.00;60.54;97327.38;4938828;28;20253;-82
2023/05/16 10:41:07;;;;;;;4.00;3.30;;;;;;;12.95;60.81;97328.13;4911616;28;20191;-80
2023/05/16 10:43:32;;;;;;;4.97;2.40;;;;;;;12.42;62.93;97332.56;4916311;28;20206;-82
2023/05/16 10:46:03;;;;;;;3.28;2.42;;;;;;;12.89;61.44;97335.16;4881965;28;20213;-82
2023/05/16 10:48:31;;;;;;;2.78;2.35;;;;;;;12.85;61.84;97331.50;4916119;28;20337;-83
2023/05/16 10:50:57;;;;;;;3.63;2.47;;;;;;;12.82;62.80;97331.22;4933417;28;20338;-80
2023/05/16 10:53:35;;;;;;;5.90;3.28;;;;;;;12.91;61.86;97338.31;4922066;28;20330;-81
2023/05/16 10:56:00;;;;;;;4.75;3.10;;;;;;;12.54;62.31;97338.38;4921511;28;20190;-81
2023/05/16 10:58:37;;;;;;;4.60;3.05;;;;;;;12.93;60.87;97338.84;4935143;28;20222;-85
2023/05/16 11:01:23;;;;;;;6.53;3.10;;;;;;;12.93;61.28;97338.06;4920568;28;20263;-80
2023/05/16 11:03:57;;;;;;;7.72;3.55;;;;;;;12.66;60.88;97332.97;4902940;28;20224;-84
2023/05/16 11:06:31;;;;;;;5.97;3.70;;;;;;;12.66;61.61;97343.41;4919863;28;20373;-81
2023/05/16 11:09:25;;;;;;;5.53;3.10;;;;;;;12.54;61.99;97347.03;4915995;28;20198;-80
2023/05/16 11:11:52;;;;;;;5.20;3.75;;;;;;;12.56;61.28;97352.00;4888843;28;20299;-79
2023/05/16 11:14:21;;;;;;;4.38;2.65;;;;;;;12.40;59.55;97356.31;4917567;28;20297;-80
2023/05/16 11:16:51;;;;;;;3.72;2.50;;;;;;;11.97;59.12;97345.81;4900764;28;20632;-81
2023/05/16 11:19:33;;;;;;;4.95;2.60;;;;;;;12.50;58.71;97348.53;4904879;28;20187;-83
2023/05/16 11:22:20;;;;;;;4.75;2.78;;;;;;;12.58;57.48;97364.78;4931417;28;20575;-79
2023/05/16 11:24:53;;;;;;;5.57;2.90;;;;;;;12.70;57.91;97353.09;4889874;28;20190;-81